Terminal Aerodrome Forecast
Issued by NWS Tampa Bay Area, FL

Home | Current Version | Previous Version | Text Only | Print | Product List | Glossary On
Versions: 1 2 3 4 5 6 7 8 9 10 11 12 13
000
FTUS42 KTBW 240500
TAFSRQ
TAF
KSRQ 240531Z 2406/2506 00000KT P6SM FEW030
     FM241400 20005KT P6SM SCT025
     FM241800 23008KT P6SM VCTS SCT045CB SCT250
     FM250000 22004KT P6SM FEW030 SCT250=

USA.gov is the U.S. government's official web portal to all federal, state and local government web resources and services.